< Typhoon 200718 2007 Season Typhoon 200720 >
Typhoon 200719 (KAJIKI)
General InformationTrack Information on Google MapsDetailed Wind InformationAccess Analytics MapList of All Images || NewsDisaster Info.WeblogTrackbackTyphoon FrontResourceGoogle EarthGE AnimationAtom FeedGeoJSON
Detalied Best Track (Time Zone = UTC)
Year Month Day Hour Lat. Long. Pressure (hPa) Wind (kt) Class Image Chart
2007 10 18 12 17.6 145.8 1006 0 2 Image Chart
2007 10 18 18 18.3 145.0 1004 0 2 Image Chart
2007 10 19 00 19.0 144.2 1002 35 3 Image Chart
2007 10 19 06 19.8 142.9 994 40 3 Image Chart
2007 10 19 12 20.5 142.0 990 50 4 Image Chart
2007 10 19 18 21.4 141.1 980 60 4 Image Chart
2007 10 20 00 22.0 140.7 965 75 5 Image Chart
2007 10 20 06 23.3 140.6 955 80 5 Image Chart
2007 10 20 12 24.5 141.0 950 85 5 Image Chart
2007 10 20 15 25.2 141.4 950 85 5 Image Chart
2007 10 20 18 26.0 142.1 945 90 5 Image Chart
2007 10 20 21 27.0 142.9 945 90 5 Image Chart
2007 10 21 00 27.9 143.9 950 85 5 Image Chart
2007 10 21 03 28.9 145.0 950 85 5 Image Chart
2007 10 21 06 29.9 146.3 955 80 5 Image Chart
2007 10 21 12 32.0 149.2 965 70 5 Image Chart
2007 10 21 18 34.2 153.2 975 60 4 Image Chart
2007 10 22 00 35.4 157.5 985 55 4 Image Chart
2007 10 22 06 36.3 162.0 998 0 6 Image Chart
2007 10 22 12 37.0 165.9 1002 0 6 Image Chart
2007 10 22 18 37.8 170.1 1004 0 6 Image Chart
2007 10 23 00 37.8 174.8 1008 0 6 Image Chart
2007 10 23 06 37.8 179.3 1010 0 6 Image Chart
2007 10 23 12 37.9 182.4 1010 0 6 Image Chart
Japan Meteorological Agency Best Track Data | Correction Date : 2007-11-28
< Typhoon 200718 2007 Season Typhoon 200720 >

Help